createdAt,value
2022-08-05T00:02:23.222Z,3.30
2022-08-05T00:08:01.150Z,3.20
2022-08-05T00:12:56.357Z,3.20
2022-08-05T00:18:02.586Z,3.20
2022-08-05T00:23:12.722Z,3.50
2022-08-05T00:28:16.772Z,2.90
2022-08-05T00:34:56.559Z,3.00
2022-08-05T00:38:57.264Z,3.50
2022-08-05T00:44:03.368Z,3.40
2022-08-05T00:49:06.695Z,3.10
2022-08-05T00:54:12.900Z,3.40
2022-08-05T00:59:16.098Z,3.00
2022-08-05T01:04:20.354Z,3.10
2022-08-05T01:09:30.468Z,2.70
2022-08-05T01:14:40.500Z,2.90
2022-08-05T01:20:01.119Z,3.30
2022-08-05T01:25:19.289Z,3.40
2022-08-05T01:30:34.279Z,3.50
2022-08-05T01:35:50.584Z,3.10
2022-08-05T01:41:01.479Z,3.20
2022-08-05T01:46:07.135Z,3.00
2022-08-05T01:51:19.754Z,2.90
2022-08-05T01:58:11.073Z,3.10
2022-08-05T02:01:52.858Z,3.30
2022-08-05T02:06:59.444Z,2.90
2022-08-05T02:12:02.757Z,3.00
2022-08-05T02:17:29.800Z,3.30
2022-08-05T02:22:45.443Z,3.00
2022-08-05T02:27:59.428Z,3.40
2022-08-05T02:33:06.719Z,3.80
2022-08-05T02:38:11.144Z,2.90
2022-08-05T02:43:24.766Z,3.20
2022-08-05T02:48:30.468Z,3.10
2022-08-05T02:53:39.698Z,3.70
2022-08-05T02:58:45.370Z,2.90
2022-08-05T03:04:04.317Z,3.10
2022-08-05T03:09:26.900Z,3.20
2022-08-05T03:14:45.990Z,2.90
2022-08-05T03:19:51.404Z,3.50
2022-08-05T03:24:56.142Z,3.30
2022-08-05T03:30:08.202Z,3.40
2022-08-05T03:35:14.366Z,3.80
2022-08-05T03:40:24.434Z,3.50
2022-08-05T03:45:55.139Z,3.20
2022-08-05T03:52:38.147Z,3.10
2022-08-05T03:56:46.370Z,3.30
2022-08-05T04:01:52.330Z,3.60
2022-08-05T04:06:56.561Z,3.60
2022-08-05T04:12:00.932Z,3.40
2022-08-05T04:17:04.782Z,3.20
2022-08-05T04:22:12.167Z,3.10
2022-08-05T04:27:16.218Z,3.10
2022-08-05T04:32:31.179Z,3.50
2022-08-05T04:38:02.214Z,3.50
2022-08-05T04:43:00.481Z,3.20
2022-08-05T04:48:16.285Z,3.30
2022-08-05T04:53:20.209Z,3.10
2022-08-05T04:58:24.298Z,3.70
2022-08-05T05:03:27.479Z,3.60
2022-08-05T05:08:45.399Z,3.40
2022-08-05T05:13:55.439Z,4.00
2022-08-05T05:19:18.745Z,3.70
2022-08-05T05:24:22.608Z,3.80
2022-08-05T05:30:04.316Z,4.00
2022-08-05T05:35:08.758Z,3.90
2022-08-05T05:40:15.743Z,3.80
2022-08-05T05:45:20.380Z,3.80
2022-08-05T05:50:23.613Z,3.70
2022-08-05T05:55:51.374Z,3.60
2022-08-05T06:00:52.370Z,3.90
2022-08-05T06:05:55.764Z,3.90
2022-08-05T06:11:00.156Z,4.00
2022-08-05T06:16:28.240Z,3.90
2022-08-05T06:21:37.197Z,4.10
2022-08-05T06:26:51.643Z,4.40
2022-08-05T06:31:56.448Z,3.90
2022-08-05T06:37:03.230Z,4.20
2022-08-05T06:42:06.874Z,3.90
2022-08-05T06:48:12.479Z,4.10
2022-08-05T06:52:37.204Z,4.00
2022-08-05T06:57:57.510Z,3.70
2022-08-05T07:03:05.004Z,3.80
2022-08-05T07:08:13.017Z,4.10
2022-08-05T07:13:59.296Z,4.10
2022-08-05T07:18:58.065Z,4.20
2022-08-05T07:24:03.177Z,4.10
2022-08-05T07:29:15.046Z,3.70
2022-08-05T07:34:25.202Z,4.40
2022-08-05T07:40:27.027Z,4.40
2022-08-05T07:44:56.039Z,3.70
2022-08-05T07:49:59.661Z,4.40
2022-08-05T07:55:02.981Z,3.70
2022-08-05T08:00:11.442Z,3.70
2022-08-05T08:05:16.102Z,4.50
2022-08-05T08:10:21.017Z,3.50
2022-08-05T08:15:37.161Z,3.70
2022-08-05T08:21:03.155Z,3.30
2022-08-05T08:26:07.488Z,3.60
2022-08-05T08:31:16.417Z,3.60
2022-08-05T08:36:37.625Z,3.40
2022-08-05T08:41:52.496Z,3.60
2022-08-05T08:47:47.801Z,3.40
2022-08-05T08:52:33.914Z,3.80
2022-08-05T08:57:48.300Z,3.60
2022-08-05T09:03:01.506Z,3.70
2022-08-05T09:08:05.134Z,3.90
2022-08-05T09:13:08.459Z,3.20
2022-08-05T09:18:13.372Z,3.30
2022-08-05T09:23:21.778Z,3.90
2022-08-05T09:28:32.587Z,3.60
2022-08-05T09:33:56.808Z,3.40
2022-08-05T09:39:03.526Z,3.60
2022-08-05T09:44:34.673Z,3.60
2022-08-05T09:50:02.130Z,3.60
2022-08-05T09:55:56.964Z,3.00
2022-08-05T10:00:36.617Z,3.40
2022-08-05T10:05:42.172Z,3.50
2022-08-05T10:10:45.918Z,3.40
2022-08-05T10:15:52.349Z,3.20
2022-08-05T10:21:08.407Z,3.30
2022-08-05T10:26:15.373Z,3.50
2022-08-05T10:32:47.741Z,3.30
2022-08-05T10:36:43.093Z,3.30
2022-08-05T10:41:57.873Z,3.60
2022-08-05T10:47:26.645Z,3.40
2022-08-05T10:52:49.821Z,3.40
2022-08-05T10:58:15.691Z,3.40
2022-08-05T11:03:23.104Z,3.10
2022-08-05T11:08:39.224Z,3.50
2022-08-05T11:13:58.081Z,3.30
2022-08-05T11:20:16.825Z,3.20
2022-08-05T11:26:04.107Z,2.90
2022-08-05T11:31:01.684Z,3.10
2022-08-05T11:36:11.664Z,3.30
2022-08-05T11:41:54.569Z,3.20
2022-08-05T11:47:10.128Z,3.30
2022-08-05T11:52:23.769Z,3.40
2022-08-05T11:58:08.536Z,3.60
2022-08-05T12:02:56.837Z,3.60
2022-08-05T12:08:07.421Z,3.10
2022-08-05T12:13:18.779Z,3.00
2022-08-05T12:18:41.114Z,3.60
2022-08-05T12:24:05.085Z,3.90
2022-08-05T12:29:22.848Z,3.70
2022-08-05T12:34:35.925Z,3.80
2022-08-05T12:39:42.098Z,3.60
2022-08-05T12:44:47.775Z,3.60
2022-08-05T12:50:04.748Z,3.40
2022-08-05T12:55:28.334Z,3.60
2022-08-05T13:02:02.133Z,3.30
2022-08-05T13:05:56.651Z,3.30
2022-08-05T13:11:04.140Z,4.00
2022-08-05T13:16:16.666Z,3.40
2022-08-05T13:21:21.848Z,3.70
2022-08-05T13:26:30.154Z,3.30
2022-08-05T13:32:03.752Z,3.60
2022-08-05T13:36:57.610Z,3.60
2022-08-05T13:42:01.620Z,3.80
2022-08-05T13:47:08.963Z,3.80
2022-08-05T13:52:14.499Z,3.90
2022-08-05T13:57:17.996Z,3.70
2022-08-05T14:02:26.472Z,3.50
2022-08-05T14:07:59.845Z,3.70
2022-08-05T14:13:07.551Z,3.70
2022-08-05T14:18:14.867Z,4.20
2022-08-05T14:23:25.831Z,3.70
2022-08-05T14:28:31.227Z,3.50
2022-08-05T14:34:00.088Z,3.50
2022-08-05T14:38:59.894Z,4.10
2022-08-05T14:44:09.933Z,3.80
2022-08-05T14:49:24.241Z,4.10
2022-08-05T14:54:53.316Z,3.70
2022-08-05T14:59:56.774Z,4.10
2022-08-05T15:05:00.452Z,4.00
2022-08-05T15:10:04.196Z,3.80
2022-08-05T15:15:15.569Z,4.10
2022-08-05T15:20:24.824Z,3.80
2022-08-05T15:25:51.915Z,4.30
2022-08-05T15:30:52.985Z,4.10
2022-08-05T15:35:56.626Z,3.30
2022-08-05T15:41:22.838Z,3.60
2022-08-05T15:46:25.143Z,5.20
2022-08-05T15:52:09.823Z,3.90
2022-08-05T15:56:55.638Z,3.90
2022-08-05T16:01:59.508Z,3.90
2022-08-05T16:07:04.731Z,3.70
2022-08-05T16:12:09.966Z,4.20
2022-08-05T16:17:14.862Z,3.80
2022-08-05T16:22:18.299Z,4.10
2022-08-05T16:27:47.117Z,4.00
2022-08-05T16:32:54.949Z,4.40
2022-08-05T16:38:02.783Z,4.50
2022-08-05T16:43:20.025Z,4.00
2022-08-05T16:48:25.200Z,4.30
2022-08-05T16:53:31.781Z,3.80
2022-08-05T16:58:52.299Z,4.50
2022-08-05T17:03:55.593Z,4.30
2022-08-05T17:08:59.233Z,4.60
2022-08-05T17:14:06.057Z,4.30
2022-08-05T17:19:10.828Z,4.50
2022-08-05T17:24:28.027Z,4.70
2022-08-05T17:29:41.120Z,4.70
2022-08-05T17:34:48.220Z,4.80
2022-08-05T17:39:55.860Z,4.60
2022-08-05T17:44:59.908Z,4.70
2022-08-05T17:50:11.022Z,4.80
2022-08-05T17:55:14.705Z,5.00
2022-08-05T18:00:19.580Z,5.00
2022-08-05T18:05:28.223Z,5.10
2022-08-05T18:10:38.992Z,5.40
2022-08-05T18:15:43.160Z,5.00
2022-08-05T18:20:48.204Z,5.00
2022-08-05T18:25:57.567Z,5.00
2022-08-05T18:31:01.709Z,5.60
2022-08-05T18:36:11.955Z,5.30
2022-08-05T18:41:53.233Z,6.50
2022-08-05T18:46:43.203Z,6.60
2022-08-05T18:52:08.322Z,6.60
2022-08-05T18:57:15.375Z,7.30
2022-08-05T19:02:26.928Z,7.20
2022-08-05T19:07:45.297Z,6.80
2022-08-05T19:12:50.282Z,6.50
2022-08-05T19:18:08.487Z,7.40
2022-08-05T19:24:06.101Z,6.70
2022-08-05T19:28:43.161Z,6.60
2022-08-05T19:33:48.751Z,6.50
2022-08-05T19:39:01.328Z,5.80
2022-08-05T19:44:13.153Z,5.90
2022-08-05T19:49:18.954Z,6.00
2022-08-05T19:54:29.646Z,6.40
2022-08-05T19:59:56.657Z,7.30
2022-08-05T20:04:59.661Z,7.20
2022-08-05T20:10:13.870Z,7.40
2022-08-05T20:15:48.907Z,7.10
2022-08-05T20:20:46.932Z,7.20
2022-08-05T20:25:52.270Z,7.90
2022-08-05T20:30:56.907Z,7.60
2022-08-05T20:36:02.302Z,7.40
2022-08-05T20:41:08.181Z,7.30
2022-08-05T20:46:18.408Z,7.80
2022-08-05T20:51:36.669Z,8.00
2022-08-05T20:56:42.497Z,7.60
2022-08-05T21:01:47.804Z,7.30
2022-08-05T21:06:54.190Z,7.90
2022-08-05T21:12:06.855Z,8.00
2022-08-05T21:17:15.608Z,7.50
2022-08-05T21:22:23.182Z,6.80
2022-08-05T21:27:28.352Z,7.20
2022-08-05T21:32:42.787Z,7.60
2022-08-05T21:37:47.414Z,6.80
2022-08-05T21:42:59.080Z,6.20
2022-08-05T21:48:06.237Z,7.50
2022-08-05T21:53:17.574Z,7.90
2022-08-05T21:58:24.879Z,8.30
2022-08-05T22:03:49.129Z,7.10
2022-08-05T22:08:56.888Z,5.80
2022-08-05T22:14:33.490Z,5.60
2022-08-05T22:19:57.460Z,5.70
2022-08-05T22:25:08.773Z,5.20
2022-08-05T22:30:24.695Z,5.80
2022-08-05T22:35:48.536Z,5.40
2022-08-05T22:40:55.369Z,5.00
2022-08-05T22:45:58.885Z,5.40
2022-08-05T22:51:07.037Z,5.30
2022-08-05T22:56:10.688Z,5.10
2022-08-05T23:01:16.727Z,5.20
2022-08-05T23:06:26.306Z,4.10
2022-08-05T23:11:29.798Z,4.60
2022-08-05T23:16:53.387Z,4.30
2022-08-05T23:21:56.645Z,4.90
2022-08-05T23:26:59.884Z,4.90
2022-08-05T23:32:04.285Z,4.30
2022-08-05T23:37:07.552Z,4.80
2022-08-05T23:42:14.764Z,4.70
2022-08-05T23:47:27.965Z,4.60
2022-08-05T23:52:50.113Z,5.30
2022-08-05T23:57:54.170Z,5.50
